createdAt,value
2019-02-15T00:03:11.945Z,16.70
2019-02-15T00:05:39.334Z,7.85
2019-02-15T00:08:06.792Z,8.75
2019-02-15T00:10:34.193Z,7.95
2019-02-15T00:13:01.597Z,8.07
2019-02-15T00:15:29.601Z,8.95
2019-02-15T00:20:49.161Z,16.02
2019-02-15T00:23:16.573Z,8.98
2019-02-15T00:25:44.032Z,9.13
2019-02-15T00:28:11.639Z,9.13
2019-02-15T00:30:39.030Z,9.15
2019-02-15T00:33:06.443Z,8.15
2019-02-15T00:35:33.858Z,9.63
2019-02-15T00:38:01.260Z,7.82
2019-02-15T00:40:28.672Z,8.45
2019-02-15T00:42:56.235Z,10.23
2019-02-15T00:45:23.663Z,9.40
2019-02-15T00:47:55.029Z,7.70
2019-02-15T00:50:37.299Z,8.50
2019-02-15T00:53:22.399Z,9.05
2019-02-15T00:55:49.803Z,8.10
2019-02-15T00:58:17.194Z,9.25
2019-02-15T01:00:55.166Z,8.32
2019-02-15T01:03:23.620Z,8.73
2019-02-15T01:05:56.673Z,8.75
2019-02-15T01:08:29.636Z,8.20
2019-02-15T01:10:57.075Z,8.45
2019-02-15T01:13:31.008Z,8.10
2019-02-15T01:15:51.959Z,8.15
2019-02-15T01:18:19.353Z,7.03
2019-02-15T01:20:46.751Z,6.62
2019-02-15T01:23:14.195Z,9.25
2019-02-15T01:25:41.602Z,6.30
2019-02-15T01:28:10.820Z,7.07
2019-02-15T01:30:46.852Z,8.98
2019-02-15T01:33:14.654Z,8.05
2019-02-15T01:35:42.413Z,10.30
2019-02-15T01:38:13.201Z,9.27
2019-02-15T01:40:43.327Z,8.95
2019-02-15T01:43:11.603Z,9.73
2019-02-15T01:45:39.534Z,8.60
2019-02-15T01:48:07.095Z,8.95
2019-02-15T01:50:34.495Z,9.60
2019-02-15T01:53:01.873Z,7.15
2019-02-15T01:55:30.058Z,8.85
2019-02-15T01:57:57.503Z,8.20
2019-02-15T02:00:24.908Z,9.63
2019-02-15T02:02:52.512Z,7.15
2019-02-15T02:05:19.899Z,9.35
2019-02-15T02:07:47.301Z,8.25
2019-02-15T02:10:14.700Z,7.50
2019-02-15T02:12:42.112Z,10.95
2019-02-15T02:15:09.522Z,7.25
2019-02-15T02:17:36.947Z,9.07
2019-02-15T02:20:04.371Z,8.57
2019-02-15T02:22:31.756Z,9.15
2019-02-15T02:24:59.189Z,8.52
2019-02-15T02:27:26.574Z,7.45
2019-02-15T02:29:53.975Z,7.85
2019-02-15T02:32:21.370Z,8.68
2019-02-15T02:34:48.763Z,9.45
2019-02-15T02:37:16.169Z,7.95
2019-02-15T02:39:43.598Z,7.53
2019-02-15T02:42:11.198Z,9.20
2019-02-15T02:44:38.614Z,9.73
2019-02-15T02:47:06.038Z,8.25
2019-02-15T02:49:33.442Z,8.70
2019-02-15T02:52:00.839Z,9.27
2019-02-15T02:54:28.263Z,9.05
2019-02-15T02:56:55.659Z,10.10
2019-02-15T02:59:23.064Z,9.40
2019-02-15T03:01:50.468Z,7.68
2019-02-15T03:04:17.889Z,8.50
2019-02-15T03:06:45.288Z,7.07
2019-02-15T03:09:12.679Z,8.30
2019-02-15T03:11:40.088Z,8.10
2019-02-15T03:14:11.455Z,8.18
2019-02-15T03:16:34.995Z,9.60
2019-02-15T03:19:02.412Z,6.40
2019-02-15T03:21:29.801Z,8.15
2019-02-15T03:23:57.213Z,6.82
2019-02-15T03:26:24.600Z,9.32
2019-02-15T03:28:51.995Z,6.25
2019-02-15T03:31:19.394Z,6.78
2019-02-15T03:33:46.804Z,7.10
2019-02-15T03:39:16.260Z,14.30
2019-02-15T03:41:43.743Z,8.68
2019-02-15T03:44:21.353Z,7.90
2019-02-15T03:46:38.756Z,8.85
2019-02-15T03:49:06.161Z,7.47
2019-02-15T03:51:33.595Z,8.48
2019-02-15T03:54:00.993Z,9.10
2019-02-15T03:56:28.402Z,8.10
2019-02-15T03:58:56.470Z,9.95
2019-02-15T04:01:23.870Z,8.35
2019-02-15T04:03:51.275Z,8.00
2019-02-15T04:06:18.666Z,7.97
2019-02-15T04:08:46.131Z,7.05
2019-02-15T04:11:13.544Z,7.22
2019-02-15T04:13:41.121Z,8.05
2019-02-15T04:16:08.530Z,7.25
2019-02-15T04:18:36.016Z,6.95
2019-02-15T04:21:03.486Z,7.22
2019-02-15T04:23:30.879Z,7.53
2019-02-15T04:25:58.283Z,7.40
2019-02-15T04:28:25.695Z,9.48
2019-02-15T04:30:53.127Z,8.50
2019-02-15T04:33:20.550Z,7.03
2019-02-15T04:35:48.027Z,8.73
2019-02-15T04:38:15.465Z,7.97
2019-02-15T04:40:42.872Z,9.73
2019-02-15T04:43:10.267Z,6.90
2019-02-15T04:45:37.715Z,8.15
2019-02-15T04:48:05.129Z,7.82
2019-02-15T04:50:32.529Z,8.95
2019-02-15T04:53:02.941Z,8.60
2019-02-15T04:55:27.443Z,8.52
2019-02-15T04:57:54.843Z,8.50
2019-02-15T05:00:22.275Z,7.00
2019-02-15T05:02:49.672Z,10.50
2019-02-15T05:05:17.071Z,6.40
2019-02-15T05:07:44.465Z,8.05
2019-02-15T05:10:11.924Z,7.40
2019-02-15T05:12:39.313Z,6.80
2019-02-15T05:15:06.707Z,6.60
2019-02-15T05:17:34.105Z,6.20
2019-02-15T05:20:01.887Z,7.30
2019-02-15T05:22:29.307Z,8.73
2019-02-15T05:24:56.744Z,6.47
2019-02-15T05:27:24.820Z,7.68
2019-02-15T05:29:52.305Z,6.15
2019-02-15T05:32:19.909Z,7.15
2019-02-15T05:34:47.303Z,7.10
2019-02-15T05:37:15.611Z,8.93
2019-02-15T05:39:43.016Z,8.77
2019-02-15T05:42:10.403Z,7.55
2019-02-15T05:44:37.853Z,9.25
2019-02-15T05:47:05.311Z,7.72
2019-02-15T05:49:32.714Z,6.85
2019-02-15T05:52:00.153Z,8.40
2019-02-15T05:54:27.611Z,8.65
2019-02-15T05:56:55.007Z,7.95
2019-02-15T05:59:22.402Z,7.95
2019-02-15T06:01:49.836Z,7.97
2019-02-15T06:04:17.224Z,7.82
2019-02-15T06:06:44.742Z,9.48
2019-02-15T06:09:12.192Z,12.30
2019-02-15T06:11:39.599Z,10.63
2019-02-15T06:14:07.121Z,13.80
2019-02-15T06:16:34.524Z,10.10
2019-02-15T06:19:01.992Z,8.25
2019-02-15T06:21:29.427Z,9.05
2019-02-15T06:23:57.065Z,8.77
2019-02-15T06:26:24.449Z,9.93
2019-02-15T06:28:51.887Z,7.05
2019-02-15T06:31:19.303Z,11.32
2019-02-15T06:33:46.722Z,8.10
2019-02-15T06:36:14.173Z,12.65
2019-02-15T06:38:41.578Z,7.82
2019-02-15T06:41:09.063Z,9.23
2019-02-15T06:43:36.489Z,9.32
2019-02-15T06:46:05.106Z,9.50
2019-02-15T06:48:32.643Z,8.25
2019-02-15T06:51:00.030Z,10.55
2019-02-15T06:53:27.435Z,8.65
2019-02-15T06:55:56.379Z,9.73
2019-02-15T06:58:23.790Z,7.85
2019-02-15T07:03:43.983Z,18.75
2019-02-15T07:06:12.291Z,9.85
2019-02-15T07:08:39.704Z,10.07
2019-02-15T07:11:07.105Z,8.60
2019-02-15T07:13:34.501Z,7.68
2019-02-15T07:16:01.941Z,8.68
2019-02-15T07:18:29.345Z,10.70
2019-02-15T07:20:56.743Z,9.27
2019-02-15T07:23:24.744Z,8.85
2019-02-15T07:25:52.144Z,8.68
2019-02-15T07:28:19.623Z,8.60
2019-02-15T07:30:47.005Z,9.05
2019-02-15T07:33:14.447Z,9.13
2019-02-15T07:35:41.852Z,9.82
2019-02-15T07:38:12.344Z,7.20
2019-02-15T07:40:39.903Z,8.07
2019-02-15T07:43:07.315Z,8.00
2019-02-15T07:45:42.628Z,7.95
2019-02-15T07:48:02.884Z,8.90
2019-02-15T07:50:30.310Z,9.30
2019-02-15T07:52:57.800Z,11.73
2019-02-15T07:55:25.325Z,14.65
2019-02-15T07:57:52.825Z,12.40
2019-02-15T08:00:21.136Z,13.27
2019-02-15T08:02:48.548Z,12.02
2019-02-15T08:05:15.999Z,9.38
2019-02-15T08:07:43.395Z,13.68
2019-02-15T08:10:10.812Z,15.18
2019-02-15T08:12:38.275Z,18.80
2019-02-15T08:15:05.685Z,14.00
2019-02-15T08:17:33.092Z,11.85
2019-02-15T08:20:00.560Z,14.80
2019-02-15T08:22:27.992Z,14.52
2019-02-15T08:24:55.993Z,14.80
2019-02-15T08:27:23.421Z,15.20
2019-02-15T08:29:50.816Z,13.82
2019-02-15T08:32:18.240Z,13.65
2019-02-15T08:34:45.643Z,13.62
2019-02-15T08:37:13.914Z,12.23
2019-02-15T08:39:40.645Z,11.65
2019-02-15T08:42:08.083Z,14.02
2019-02-15T08:44:35.527Z,13.75
2019-02-15T08:47:02.986Z,11.70
2019-02-15T08:49:30.644Z,13.00
2019-02-15T08:51:58.032Z,12.07
2019-02-15T08:54:25.470Z,13.30
2019-02-15T08:56:52.875Z,11.43
2019-02-15T08:59:20.319Z,11.85
2019-02-15T09:01:47.739Z,11.60
2019-02-15T09:04:15.197Z,14.43
2019-02-15T09:06:42.636Z,13.90
2019-02-15T09:09:10.897Z,13.05
2019-02-15T09:11:38.299Z,10.70
2019-02-15T09:14:05.731Z,14.32
2019-02-15T09:16:33.290Z,13.30
2019-02-15T09:19:00.682Z,14.63
2019-02-15T09:21:28.097Z,14.48
2019-02-15T09:23:55.491Z,13.45
2019-02-15T09:26:22.920Z,13.65
2019-02-15T09:28:50.326Z,13.05
2019-02-15T09:31:17.730Z,13.57
2019-02-15T09:33:45.164Z,14.32
2019-02-15T09:36:12.589Z,13.85
2019-02-15T09:38:40.007Z,13.15
2019-02-15T09:41:07.415Z,14.48
2019-02-15T09:43:34.831Z,16.12
2019-02-15T09:46:02.276Z,18.12
2019-02-15T09:48:30.254Z,17.10
2019-02-15T09:50:58.746Z,16.48
2019-02-15T09:53:26.164Z,18.35
2019-02-15T09:55:53.570Z,15.23
2019-02-15T09:58:21.014Z,16.70
2019-02-15T10:00:48.555Z,13.50
2019-02-15T10:03:15.899Z,15.25
2019-02-15T10:05:43.296Z,11.23
2019-02-15T10:08:10.822Z,15.00
2019-02-15T10:10:38.241Z,14.10
2019-02-15T10:13:05.635Z,12.75
2019-02-15T10:15:33.035Z,14.55
2019-02-15T10:18:00.451Z,13.02
2019-02-15T10:20:28.071Z,14.70
2019-02-15T10:22:55.468Z,12.88
2019-02-15T10:25:22.898Z,16.87
2019-02-15T10:27:50.301Z,16.08
2019-02-15T10:30:17.743Z,17.25
2019-02-15T10:32:45.159Z,16.02
2019-02-15T10:35:12.660Z,18.70
2019-02-15T10:37:40.125Z,19.87
2019-02-15T10:40:07.543Z,16.90
2019-02-15T10:42:34.976Z,16.77
2019-02-15T10:45:02.540Z,17.60
2019-02-15T10:47:29.946Z,17.10
2019-02-15T10:49:57.377Z,19.25
2019-02-15T10:52:24.823Z,18.17
2019-02-15T10:54:52.278Z,18.35
2019-02-15T10:57:19.749Z,20.20
2019-02-15T10:59:47.183Z,20.25
2019-02-15T11:02:14.587Z,19.15
2019-02-15T11:04:42.011Z,18.77
2019-02-15T11:07:09.423Z,20.73
2019-02-15T11:58:37.689Z,18.25
2019-02-15T12:01:05.099Z,16.87
2019-02-15T12:03:32.519Z,18.12
2019-02-15T12:05:59.964Z,18.70
2019-02-15T12:08:27.529Z,18.08
2019-02-15T12:10:54.951Z,18.33
2019-02-15T12:13:22.899Z,17.67
2019-02-15T12:15:50.359Z,15.80
2019-02-15T12:18:17.772Z,16.60
2019-02-15T12:20:45.188Z,19.17
2019-02-15T12:23:12.607Z,15.75
2019-02-15T12:25:40.058Z,18.80
2019-02-15T12:28:07.466Z,20.37
2019-02-15T12:30:34.935Z,17.37
2019-02-15T12:33:02.381Z,18.90
2019-02-15T12:35:29.958Z,16.45
2019-02-15T12:37:57.348Z,16.17
2019-02-15T12:40:24.746Z,15.43
2019-02-15T12:42:52.164Z,14.70
2019-02-15T12:45:19.683Z,15.90
2019-02-15T12:47:47.208Z,17.23
2019-02-15T12:50:15.335Z,16.75
2019-02-15T12:52:42.743Z,16.15
2019-02-15T12:55:10.642Z,14.90
2019-02-15T12:57:38.107Z,17.33
2019-02-15T13:00:06.340Z,13.90
2019-02-15T13:02:33.836Z,16.17
2019-02-15T13:05:01.249Z,15.30
2019-02-15T13:07:28.952Z,16.37
2019-02-15T13:09:57.119Z,15.38
2019-02-15T13:12:24.524Z,16.67
2019-02-15T13:14:51.947Z,19.35
2019-02-15T13:17:24.784Z,21.30
2019-02-15T13:19:46.834Z,17.87
2019-02-15T13:22:14.442Z,15.95
2019-02-15T13:24:43.242Z,18.70
2019-02-15T13:27:09.335Z,20.60
2019-02-15T13:29:36.836Z,17.20
2019-02-15T13:32:04.257Z,20.00
2019-02-15T13:34:31.698Z,20.70
2019-02-15T13:36:59.199Z,19.92
2019-02-15T13:39:27.254Z,16.60
2019-02-15T13:41:54.684Z,17.65
2019-02-15T13:44:22.083Z,18.55
2019-02-15T13:46:49.531Z,19.08
2019-02-15T13:49:16.958Z,18.60
2019-02-15T13:51:45.406Z,15.73
2019-02-15T13:54:12.810Z,16.58
2019-02-15T13:56:40.672Z,16.80
2019-02-15T13:59:07.806Z,18.05
2019-02-15T14:01:35.199Z,15.77
2019-02-15T14:04:02.647Z,16.58
2019-02-15T14:06:30.067Z,17.83
2019-02-15T14:08:57.539Z,18.30
2019-02-15T14:11:25.927Z,16.52
2019-02-15T14:13:54.314Z,15.98
2019-02-15T14:16:21.751Z,17.17
2019-02-15T14:18:49.219Z,16.55
2019-02-15T14:21:16.617Z,18.85
2019-02-15T14:23:44.089Z,15.38
2019-02-15T14:26:11.503Z,16.40
2019-02-15T14:28:38.916Z,17.23
2019-02-15T14:31:06.910Z,19.30
2019-02-15T14:33:34.309Z,20.95
2019-02-15T14:36:01.731Z,23.62
2019-02-15T14:38:29.183Z,26.85
2019-02-15T14:40:56.600Z,26.12
2019-02-15T14:43:24.055Z,25.20
2019-02-15T14:45:51.954Z,23.80
2019-02-15T14:48:20.140Z,27.87
2019-02-15T14:50:46.816Z,28.30
2019-02-15T14:53:14.242Z,21.58
2019-02-15T14:55:41.646Z,26.52
2019-02-15T14:58:09.257Z,28.15
2019-02-15T15:00:36.731Z,30.25
2019-02-15T15:03:04.083Z,33.35
2019-02-15T15:05:31.559Z,28.48
2019-02-15T15:07:58.975Z,31.80
2019-02-15T15:10:26.735Z,35.97
2019-02-15T15:12:54.664Z,36.55
2019-02-15T15:15:22.226Z,28.35
2019-02-15T15:17:50.137Z,28.30
2019-02-15T15:20:17.130Z,37.05
2019-02-15T15:22:44.553Z,38.28
2019-02-15T15:25:12.079Z,39.83
2019-02-15T15:27:39.655Z,38.58
2019-02-15T15:30:07.742Z,42.67
2019-02-15T15:32:35.182Z,44.57
2019-02-15T15:35:02.567Z,53.03
2019-02-15T15:37:30.014Z,42.30
2019-02-15T15:39:57.467Z,43.67
2019-02-15T15:42:24.906Z,40.20
2019-02-15T15:44:52.309Z,36.00
2019-02-15T15:47:19.780Z,37.93
2019-02-15T15:49:47.197Z,46.15
2019-02-15T15:52:14.660Z,41.88
2019-02-15T15:54:42.216Z,41.33
2019-02-15T15:57:09.739Z,38.33
2019-02-15T15:59:37.180Z,47.70
2019-02-15T16:02:04.697Z,36.65
2019-02-15T16:04:32.124Z,32.70
2019-02-15T16:06:59.531Z,30.83
2019-02-15T16:09:27.029Z,27.02
2019-02-15T16:11:54.535Z,23.58
2019-02-15T16:14:21.977Z,22.65
2019-02-15T16:16:49.415Z,23.73
2019-02-15T16:21:44.485Z,24.02
2019-02-15T16:24:12.836Z,21.92
2019-02-15T16:26:38.662Z,19.62
2019-02-15T16:29:06.207Z,16.05
2019-02-15T16:31:33.661Z,15.48
2019-02-15T16:34:01.365Z,14.30
2019-02-15T16:36:28.764Z,12.18
2019-02-15T16:38:57.057Z,11.75
2019-02-15T16:41:24.485Z,13.77
2019-02-15T16:43:51.892Z,12.60
2019-02-15T16:46:19.295Z,13.27
2019-02-15T16:48:47.501Z,12.20
2019-02-15T16:51:14.970Z,12.45
2019-02-15T16:53:42.616Z,9.07
2019-02-15T16:56:10.043Z,11.63
2019-02-15T16:58:37.439Z,12.50
2019-02-15T17:01:04.858Z,10.77
2019-02-15T17:03:32.273Z,12.85
2019-02-15T17:05:59.708Z,13.60
2019-02-15T17:08:27.223Z,13.65
2019-02-15T17:10:54.642Z,12.13
2019-02-15T17:13:22.046Z,12.68
2019-02-15T17:15:49.454Z,10.98
2019-02-15T17:18:16.887Z,12.00
2019-02-15T17:20:44.309Z,10.48
2019-02-15T17:23:11.899Z,10.05
2019-02-15T17:25:39.302Z,11.82
2019-02-15T17:28:06.702Z,11.45
2019-02-15T17:30:34.138Z,12.37
2019-02-15T17:33:01.559Z,10.30
2019-02-15T17:35:28.972Z,12.98
2019-02-15T17:37:56.370Z,12.05
2019-02-15T17:40:23.773Z,11.52
2019-02-15T17:42:51.241Z,12.82
2019-02-15T17:45:18.803Z,11.18
2019-02-15T17:47:46.267Z,10.25
2019-02-15T17:50:13.671Z,10.35
2019-02-15T17:52:41.189Z,12.23
2019-02-15T17:55:09.415Z,9.60
2019-02-15T17:57:36.862Z,9.48
2019-02-15T18:00:04.259Z,11.45
2019-02-15T18:02:31.672Z,8.75
2019-02-15T18:04:59.292Z,10.07
2019-02-15T18:07:26.748Z,9.77
2019-02-15T18:09:54.155Z,10.10
2019-02-15T18:12:21.574Z,13.38
2019-02-15T18:14:48.973Z,9.95
2019-02-15T18:17:16.512Z,11.52
2019-02-15T18:19:47.242Z,10.75
2019-02-15T18:22:11.377Z,13.00
2019-02-15T18:24:38.784Z,12.80
2019-02-15T18:27:06.216Z,14.95
2019-02-15T18:29:33.655Z,15.85
2019-02-15T18:32:02.145Z,11.43
2019-02-15T18:34:29.587Z,11.15
2019-02-15T18:36:56.979Z,11.45
2019-02-15T18:39:24.404Z,9.65
2019-02-15T18:41:51.831Z,10.32
2019-02-15T18:44:19.259Z,9.80
2019-02-15T18:46:46.659Z,12.82
2019-02-15T18:49:19.403Z,12.48
2019-02-15T18:51:41.798Z,12.25
2019-02-15T18:54:09.247Z,12.45
2019-02-15T18:56:36.786Z,11.23
2019-02-15T18:59:04.350Z,14.82
2019-02-15T19:01:31.837Z,13.68
2019-02-15T19:03:59.243Z,13.55
2019-02-15T19:06:26.680Z,12.60
2019-02-15T19:08:54.137Z,15.38
2019-02-15T19:11:21.608Z,12.75
2019-02-15T19:13:49.031Z,14.02
2019-02-15T19:16:16.509Z,13.95
2019-02-15T19:18:43.944Z,12.23
2019-02-15T19:21:11.483Z,14.40
2019-02-15T19:23:38.887Z,12.95
2019-02-15T19:26:06.374Z,11.95
2019-02-15T19:28:34.772Z,13.43
2019-02-15T19:31:02.190Z,13.95
2019-02-15T19:33:29.625Z,12.93
2019-02-15T19:35:57.026Z,13.70
2019-02-15T19:38:24.536Z,13.13
2019-02-15T19:40:52.086Z,13.82
2019-02-15T19:43:19.504Z,12.43
2019-02-15T19:45:46.930Z,13.62
2019-02-15T19:48:14.369Z,11.77
2019-02-15T19:50:41.785Z,14.15
2019-02-15T19:53:09.280Z,13.05
2019-02-15T19:55:36.722Z,13.05
2019-02-15T19:58:04.269Z,14.73
2019-02-15T20:00:31.715Z,13.02
2019-02-15T20:02:59.210Z,15.02
2019-02-15T20:05:26.639Z,13.68
2019-02-15T20:07:54.251Z,14.00
2019-02-15T20:10:21.652Z,12.07
2019-02-15T20:12:49.122Z,13.13
2019-02-15T20:15:16.511Z,12.35
2019-02-15T20:17:44.013Z,10.75
2019-02-15T20:20:12.285Z,12.90
2019-02-15T20:22:39.760Z,17.35
2019-02-15T20:25:07.275Z,12.27
2019-02-15T20:27:34.892Z,11.23
2019-02-15T20:30:03.445Z,12.82
2019-02-15T20:32:29.794Z,12.80
2019-02-15T20:34:57.232Z,11.15
2019-02-15T20:37:24.614Z,14.95
2019-02-15T20:39:52.122Z,11.07
2019-02-15T20:42:19.591Z,10.98
2019-02-15T20:44:47.021Z,13.25
2019-02-15T20:47:15.162Z,11.60
2019-02-15T20:49:42.931Z,10.10
2019-02-15T20:52:10.335Z,12.65
2019-02-15T20:54:38.690Z,11.12
2019-02-15T20:57:06.127Z,11.15
2019-02-15T20:59:33.573Z,12.80
2019-02-15T21:02:01.023Z,10.02
2019-02-15T21:04:28.463Z,10.80
2019-02-15T21:06:55.889Z,10.60
2019-02-15T21:09:23.291Z,10.02
2019-02-15T21:11:50.748Z,11.43
2019-02-15T21:14:18.224Z,8.77
2019-02-15T21:16:45.679Z,10.80
2019-02-15T21:19:13.114Z,10.77
2019-02-15T21:21:40.646Z,10.45
2019-02-15T21:24:08.074Z,11.02
2019-02-15T21:26:35.514Z,12.13
2019-02-15T21:29:02.967Z,12.73
2019-02-15T21:31:30.360Z,10.07
2019-02-15T21:33:57.793Z,12.37
2019-02-15T21:36:25.194Z,12.70
2019-02-15T21:38:53.427Z,11.48
2019-02-15T21:41:20.836Z,11.25
2019-02-15T21:43:48.234Z,11.77
2019-02-15T21:46:15.658Z,10.15
2019-02-15T21:48:43.051Z,12.68
2019-02-15T21:51:10.523Z,12.93
2019-02-15T21:53:37.961Z,11.25
2019-02-15T21:56:05.472Z,12.25
2019-02-15T21:58:32.878Z,13.07
2019-02-15T22:01:01.476Z,12.82
2019-02-15T22:03:27.800Z,12.65
2019-02-15T22:05:55.220Z,11.68
2019-02-15T22:08:22.705Z,9.80
2019-02-15T22:10:50.144Z,11.88
2019-02-15T22:13:17.582Z,9.10
2019-02-15T22:15:45.260Z,11.25
2019-02-15T22:18:12.678Z,11.20
2019-02-15T22:20:40.177Z,11.00
2019-02-15T22:23:07.599Z,11.40
2019-02-15T22:25:34.998Z,11.73
2019-02-15T22:28:02.411Z,9.90
2019-02-15T22:30:29.804Z,10.30
2019-02-15T22:32:57.289Z,10.55
2019-02-15T22:35:24.714Z,8.38
2019-02-15T22:37:52.091Z,8.38
2019-02-15T22:40:28.689Z,8.95
2019-02-15T22:42:56.115Z,9.52
2019-02-15T22:45:23.529Z,9.68
2019-02-15T22:47:51.711Z,12.90
2019-02-15T22:50:19.283Z,8.35
2019-02-15T22:52:46.835Z,8.93
2019-02-15T22:55:15.003Z,12.00
2019-02-15T22:57:42.408Z,11.40
2019-02-15T23:00:16.323Z,11.82
2019-02-15T23:02:43.893Z,11.27
2019-02-15T23:05:11.399Z,11.18
2019-02-15T23:07:39.863Z,14.40
2019-02-15T23:10:07.283Z,11.15
2019-02-15T23:12:34.684Z,9.32
2019-02-15T23:15:02.101Z,12.37
2019-02-15T23:17:29.499Z,9.40
2019-02-15T23:19:56.895Z,10.48
2019-02-15T23:22:24.418Z,11.52
2019-02-15T23:24:51.877Z,10.80
2019-02-15T23:27:19.310Z,10.20
2019-02-15T23:29:47.043Z,10.07
2019-02-15T23:32:14.244Z,9.32
2019-02-15T23:34:41.660Z,9.13
2019-02-15T23:37:09.062Z,12.50
2019-02-15T23:39:36.459Z,10.75
2019-02-15T23:42:03.867Z,8.80
2019-02-15T23:44:31.294Z,9.35
2019-02-15T23:46:58.750Z,10.73
2019-02-15T23:49:26.166Z,12.10
2019-02-15T23:51:53.706Z,9.45
2019-02-15T23:54:21.105Z,10.30
2019-02-15T23:56:48.503Z,10.95
2019-02-15T23:59:15.935Z,9.02
